createdAt,value
2022-08-07T00:02:41.198Z,1.00
2022-08-07T00:05:04.028Z,99.90
2022-08-07T00:07:40.891Z,99.90
2022-08-07T00:10:26.580Z,1.00
2022-08-07T00:13:01.265Z,1.00
2022-08-07T00:15:37.812Z,99.90
2022-08-07T00:18:19.647Z,1.00
2022-08-07T00:20:50.395Z,99.90
2022-08-07T00:23:21.065Z,1.00
2022-08-07T00:25:58.944Z,99.90
2022-08-07T00:28:33.367Z,1.00
2022-08-07T00:31:06.249Z,99.90
2022-08-07T00:33:43.170Z,1.00
2022-08-07T00:36:16.926Z,1.00
2022-08-07T00:38:45.281Z,99.90
2022-08-07T00:41:14.722Z,1.00
2022-08-07T00:44:01.990Z,1.00
2022-08-07T00:46:33.951Z,99.90
2022-08-07T00:49:03.723Z,99.90
2022-08-07T00:51:58.150Z,1.00
2022-08-07T00:54:22.270Z,1.00
2022-08-07T00:56:52.162Z,1.00
2022-08-07T00:59:35.232Z,1.00
2022-08-07T01:02:09.005Z,99.90
2022-08-07T01:04:50.662Z,33.80
2022-08-07T01:07:22.345Z,1.00
2022-08-07T01:10:06.557Z,1.00
2022-08-07T01:12:53.253Z,99.90
2022-08-07T01:16:00.484Z,99.90
2022-08-07T01:18:16.952Z,99.90
2022-08-07T01:20:59.500Z,99.90
2022-08-07T01:23:35.383Z,1.00
2022-08-07T01:26:12.252Z,99.90
2022-08-07T01:28:46.326Z,95.20
2022-08-07T01:31:19.996Z,99.90
2022-08-07T01:33:55.383Z,99.90
2022-08-07T01:36:34.062Z,99.90
2022-08-07T01:39:10.692Z,99.90
2022-08-07T01:42:07.403Z,99.90
2022-08-07T01:44:29.381Z,99.90
2022-08-07T01:47:01.164Z,99.90
2022-08-07T01:49:46.041Z,1.00
2022-08-07T01:52:25.069Z,1.00
2022-08-07T01:54:58.905Z,1.00
2022-08-07T01:58:01.572Z,1.00
2022-08-07T02:00:28.571Z,1.00
2022-08-07T02:03:18.298Z,1.00
2022-08-07T02:06:00.072Z,99.90
2022-08-07T02:08:35.496Z,99.90
2022-08-07T02:11:07.144Z,99.90
2022-08-07T02:13:57.478Z,99.90
2022-08-07T02:16:33.649Z,99.90
2022-08-07T02:19:05.640Z,99.90
2022-08-07T02:21:58.898Z,99.90
2022-08-07T02:24:30.095Z,99.90
2022-08-07T02:27:02.802Z,99.90
2022-08-07T02:29:34.496Z,99.90
2022-08-07T02:32:14.116Z,99.90
2022-08-07T02:34:48.697Z,99.90
2022-08-07T02:37:21.699Z,99.90
2022-08-07T02:40:02.167Z,99.90
2022-08-07T02:42:43.772Z,99.90
2022-08-07T02:45:59.117Z,99.90
2022-08-07T02:48:05.221Z,99.90
2022-08-07T02:50:51.409Z,99.90
2022-08-07T02:53:27.274Z,99.90
2022-08-07T02:56:03.235Z,99.90
2022-08-07T02:58:39.833Z,99.90
2022-08-07T03:01:19.064Z,99.90
2022-08-07T03:04:07.725Z,99.90
2022-08-07T03:06:44.780Z,99.90
2022-08-07T03:09:43.345Z,99.90
2022-08-07T03:12:05.473Z,99.90
2022-08-07T03:14:37.181Z,99.90
2022-08-07T03:17:06.668Z,99.90
2022-08-07T03:19:37.584Z,99.90
2022-08-07T03:22:07.936Z,99.90
2022-08-07T03:24:48.493Z,99.90
2022-08-07T03:27:29.951Z,99.90
2022-08-07T03:30:03.764Z,99.90
2022-08-07T03:32:39.753Z,99.90
2022-08-07T03:35:26.295Z,99.90
2022-08-07T03:37:58.595Z,99.90
2022-08-07T03:40:35.991Z,99.90
2022-08-07T03:43:10.092Z,99.90
2022-08-07T03:45:47.877Z,99.90
2022-08-07T03:48:17.330Z,99.90
2022-08-07T03:50:56.214Z,99.90
2022-08-07T03:54:00.785Z,99.90
2022-08-07T03:56:33.060Z,99.90
2022-08-07T03:59:12.766Z,99.90
2022-08-07T04:01:46.279Z,99.90
2022-08-07T04:04:18.231Z,99.90
2022-08-07T04:06:50.910Z,99.90
2022-08-07T04:09:23.284Z,99.90
2022-08-07T04:12:20.804Z,99.90
2022-08-07T04:14:45.934Z,99.90
2022-08-07T04:17:20.987Z,99.90
2022-08-07T04:19:54.382Z,99.90
2022-08-07T04:22:28.494Z,99.90
2022-08-07T04:25:01.010Z,99.90
2022-08-07T04:27:35.795Z,99.90
2022-08-07T04:30:21.052Z,99.90
2022-08-07T04:32:58.226Z,99.90
2022-08-07T04:35:27.425Z,99.90
2022-08-07T04:38:07.931Z,99.90
2022-08-07T04:40:36.525Z,99.90
2022-08-07T04:44:10.452Z,99.90
2022-08-07T04:46:34.565Z,99.90
2022-08-07T04:49:24.709Z,99.90
2022-08-07T04:52:03.978Z,99.90
2022-08-07T04:54:41.831Z,99.90
2022-08-07T04:58:16.753Z,99.90
2022-08-07T05:00:41.856Z,99.90
2022-08-07T05:04:00.297Z,99.90
2022-08-07T05:06:20.490Z,99.90
2022-08-07T05:09:03.043Z,99.90
2022-08-07T05:11:57.262Z,1.00
2022-08-07T05:14:53.406Z,99.90
2022-08-07T05:17:50.132Z,99.90
2022-08-07T05:20:18.806Z,99.90
2022-08-07T05:22:52.815Z,99.90
2022-08-07T05:25:25.914Z,99.90
2022-08-07T05:28:20.852Z,99.90
2022-08-07T05:30:54.254Z,99.90
2022-08-07T05:33:24.792Z,99.90
2022-08-07T05:35:56.863Z,99.90
2022-08-07T05:39:01.264Z,99.90
2022-08-07T05:41:18.442Z,99.90
2022-08-07T05:44:08.344Z,99.90
2022-08-07T05:46:43.138Z,99.90
2022-08-07T05:49:14.338Z,99.90
2022-08-07T05:51:46.619Z,99.90
2022-08-07T05:54:31.178Z,99.90
2022-08-07T05:57:10.246Z,99.90
2022-08-07T05:59:58.061Z,99.90
2022-08-07T06:02:32.613Z,99.90
2022-08-07T06:05:06.839Z,99.90
2022-08-07T06:08:08.998Z,99.90
2022-08-07T06:10:30.082Z,99.90
2022-08-07T06:12:58.655Z,99.90
2022-08-07T06:15:40.425Z,99.90
2022-08-07T06:18:14.353Z,99.90
2022-08-07T06:20:50.511Z,99.90
2022-08-07T06:24:36.975Z,99.90
2022-08-07T06:26:27.567Z,99.90
2022-08-07T06:29:01.173Z,99.90
2022-08-07T06:31:46.996Z,99.90
2022-08-07T06:34:19.647Z,99.90
2022-08-07T06:36:51.876Z,99.90
2022-08-07T06:40:17.435Z,99.90
2022-08-07T06:42:33.115Z,99.90
2022-08-07T06:45:06.645Z,99.90
2022-08-07T06:47:56.934Z,99.90
2022-08-07T06:50:27.551Z,99.90
2022-08-07T06:53:04.209Z,99.90
2022-08-07T06:55:53.647Z,99.90
2022-08-07T06:58:27.552Z,99.80
2022-08-07T07:00:59.512Z,97.00
2022-08-07T07:03:48.852Z,94.40
2022-08-07T07:06:26.064Z,93.70
2022-08-07T07:08:54.797Z,93.60
2022-08-07T07:12:08.256Z,92.50
2022-08-07T07:14:19.196Z,94.40
2022-08-07T07:16:55.692Z,93.20
2022-08-07T07:19:55.087Z,93.40
2022-08-07T07:22:36.879Z,92.00
2022-08-07T07:26:33.238Z,90.80
2022-08-07T07:28:29.762Z,91.00
2022-08-07T07:31:12.087Z,90.30
2022-08-07T07:33:56.414Z,88.80
2022-08-07T07:36:32.177Z,90.10
2022-08-07T07:39:04.473Z,90.70
2022-08-07T07:41:50.341Z,84.30
2022-08-07T07:44:25.785Z,80.00
2022-08-07T07:54:22.112Z,72.40
2022-08-07T07:56:57.928Z,75.50
2022-08-07T07:59:52.931Z,70.30
2022-08-07T08:02:34.083Z,70.20
2022-08-07T08:05:11.365Z,69.00
2022-08-07T08:07:51.483Z,67.00
2022-08-07T08:10:35.554Z,69.40
2022-08-07T08:13:10.479Z,69.40
2022-08-07T08:15:58.932Z,65.80
2022-08-07T08:18:30.514Z,62.00
2022-08-07T08:21:03.193Z,64.70
2022-08-07T08:23:51.927Z,63.30
2022-08-07T08:26:40.387Z,63.10
2022-08-07T08:29:10.864Z,64.30
2022-08-07T08:31:58.759Z,60.90
2022-08-07T08:34:33.432Z,59.80
2022-08-07T08:37:04.356Z,59.80
2022-08-07T08:39:54.876Z,62.10
2022-08-07T08:42:40.410Z,61.10
2022-08-07T08:45:22.416Z,57.50
2022-08-07T08:48:10.746Z,59.80
2022-08-07T08:50:46.026Z,58.30
2022-08-07T08:53:25.717Z,57.60
2022-08-07T08:56:04.013Z,56.90
2022-08-07T08:58:47.552Z,57.50
2022-08-07T09:01:29.943Z,58.70
2022-08-07T09:04:26.086Z,56.30
2022-08-07T09:07:07.137Z,56.70
2022-08-07T09:09:59.624Z,56.10
2022-08-07T09:12:53.216Z,56.90
2022-08-07T09:16:20.482Z,58.20
2022-08-07T09:19:07.138Z,57.90
2022-08-07T09:24:28.740Z,57.10
2022-08-07T09:25:17.414Z,55.50
2022-08-07T09:28:02.027Z,56.90
2022-08-07T09:31:05.217Z,58.60
2022-08-07T09:34:00.101Z,54.80
2022-08-07T09:36:37.293Z,55.80
2022-08-07T09:39:54.984Z,55.40
2022-08-07T09:42:45.592Z,53.90
2022-08-07T09:47:50.786Z,52.90
2022-08-07T09:48:29.726Z,50.90
2022-08-07T09:52:16.253Z,51.60
2022-08-07T09:54:16.590Z,51.80
2022-08-07T09:57:30.954Z,53.70
2022-08-07T10:00:14.860Z,53.40
2022-08-07T10:04:03.182Z,52.80
2022-08-07T10:06:53.897Z,52.50
2022-08-07T10:10:00.935Z,50.80
2022-08-07T10:12:59.317Z,48.80
2022-08-07T10:15:55.599Z,50.00
2022-08-07T10:19:17.709Z,51.70
2022-08-07T10:22:15.404Z,50.10
2022-08-07T10:25:22.881Z,48.10
2022-08-07T10:28:17.805Z,48.10
2022-08-07T10:31:10.984Z,49.80
2022-08-07T10:34:15.365Z,46.30
2022-08-07T10:37:12.585Z,46.00
2022-08-07T10:40:09.083Z,45.40
2022-08-07T10:42:43.843Z,44.70
2022-08-07T10:45:57.503Z,46.20
2022-08-07T10:48:48.540Z,45.10
2022-08-07T10:52:01.728Z,44.80
2022-08-07T10:54:22.606Z,44.40
2022-08-07T10:57:10.548Z,45.80
2022-08-07T11:00:03.269Z,44.40
2022-08-07T11:02:41.269Z,44.80
2022-08-07T11:05:35.867Z,43.70
2022-08-07T11:08:46.976Z,43.20
2022-08-07T11:11:22.219Z,41.60
2022-08-07T11:14:43.662Z,41.20
2022-08-07T11:16:56.783Z,41.50
2022-08-07T11:19:41.078Z,41.50
2022-08-07T11:22:26.468Z,42.20
2022-08-07T11:25:12.084Z,43.60
2022-08-07T11:28:01.809Z,42.50
2022-08-07T11:30:43.924Z,40.40
2022-08-07T11:33:53.750Z,39.40
2022-08-07T11:36:35.585Z,39.40
2022-08-07T11:39:20.686Z,40.40
2022-08-07T11:42:04.316Z,40.70
2022-08-07T11:44:52.508Z,40.90
2022-08-07T11:47:59.196Z,40.10
2022-08-07T11:50:57.242Z,40.10
2022-08-07T11:54:01.462Z,41.10
2022-08-07T11:56:53.132Z,41.20
2022-08-07T12:00:12.505Z,39.90
2022-08-07T12:03:41.377Z,38.30
2022-08-07T12:06:37.878Z,37.40
2022-08-07T12:09:20.120Z,38.70
2022-08-07T12:12:10.647Z,38.30
2022-08-07T12:14:55.426Z,38.70
2022-08-07T12:17:59.447Z,38.40
2022-08-07T12:20:36.411Z,39.60
2022-08-07T12:24:04.951Z,40.40
2022-08-07T12:26:29.793Z,39.60
2022-08-07T12:29:11.271Z,37.70
2022-08-07T12:32:01.646Z,39.60
2022-08-07T12:34:40.258Z,36.90
2022-08-07T12:37:16.790Z,37.30
2022-08-07T12:39:55.088Z,36.10
2022-08-07T12:42:31.851Z,36.10
2022-08-07T12:45:10.109Z,36.20
2022-08-07T12:47:49.435Z,36.40
2022-08-07T12:50:39.213Z,37.20
2022-08-07T12:53:21.919Z,36.60
2022-08-07T12:56:04.142Z,34.90
2022-08-07T12:58:43.017Z,34.10
2022-08-07T13:01:40.718Z,33.80
2022-08-07T13:04:34.981Z,33.40
2022-08-07T13:08:14.624Z,32.30
2022-08-07T13:11:04.224Z,31.60
2022-08-07T13:13:50.346Z,32.10
2022-08-07T13:16:32.690Z,30.10
2022-08-07T13:19:35.206Z,30.50
2022-08-07T13:22:27.807Z,31.10
2022-08-07T13:25:05.936Z,29.90
2022-08-07T13:28:12.603Z,30.30
2022-08-07T13:30:41.425Z,29.20
2022-08-07T13:34:32.661Z,29.40
2022-08-07T13:36:25.718Z,27.90
2022-08-07T13:39:05.033Z,28.30
2022-08-07T13:41:47.593Z,27.50
2022-08-07T13:44:25.999Z,26.80
2022-08-07T13:47:00.927Z,25.70
2022-08-07T13:50:33.660Z,26.50
2022-08-07T13:52:39.589Z,27.20
2022-08-07T13:55:19.475Z,26.60
2022-08-07T13:58:28.180Z,26.10
2022-08-07T14:01:07.986Z,26.00
2022-08-07T14:04:07.370Z,25.90
2022-08-07T14:06:35.479Z,25.90
2022-08-07T14:09:06.761Z,26.60
2022-08-07T14:12:00.152Z,27.60
2022-08-07T14:14:35.608Z,27.30
2022-08-07T14:17:32.043Z,25.90
2022-08-07T14:20:41.091Z,25.60
2022-08-07T14:22:54.910Z,25.30
2022-08-07T14:25:39.315Z,24.50
2022-08-07T14:28:19.185Z,25.20
2022-08-07T14:30:52.211Z,25.20
2022-08-07T14:33:23.635Z,26.30
2022-08-07T14:35:58.518Z,26.40
2022-08-07T14:38:33.318Z,26.60
2022-08-07T14:41:14.829Z,26.80
2022-08-07T14:43:57.491Z,28.10
2022-08-07T14:52:28.027Z,29.60
2022-08-07T14:55:00.371Z,30.00
2022-08-07T14:57:54.729Z,30.70
2022-08-07T15:00:31.952Z,31.50
2022-08-07T15:06:03.739Z,32.20
2022-08-07T15:08:50.083Z,32.30
2022-08-07T15:11:53.849Z,30.60
2022-08-07T15:14:25.401Z,29.20
2022-08-07T15:17:04.192Z,28.30
2022-08-07T15:22:33.470Z,27.40
2022-08-07T15:25:19.340Z,27.70
2022-08-07T15:28:35.117Z,27.90
2022-08-07T15:31:04.922Z,29.00
2022-08-07T15:33:36.818Z,29.10
2022-08-07T15:36:09.100Z,29.10
2022-08-07T15:38:51.391Z,29.60
2022-08-07T15:42:43.702Z,31.50
2022-08-07T15:44:24.040Z,32.10
2022-08-07T15:47:08.618Z,30.60
2022-08-07T15:52:31.442Z,31.20
2022-08-07T15:55:11.589Z,31.40
2022-08-07T15:57:48.675Z,32.40
2022-08-07T16:00:31.469Z,31.70
2022-08-07T16:03:21.436Z,32.80
2022-08-07T16:05:57.871Z,33.30
2022-08-07T16:08:37.855Z,31.50
2022-08-07T16:11:26.902Z,33.20
2022-08-07T16:14:09.054Z,33.20
2022-08-07T16:17:15.457Z,33.30
2022-08-07T16:20:33.783Z,33.60
2022-08-07T16:23:53.969Z,33.70
2022-08-07T16:26:59.559Z,34.50
2022-08-07T16:30:11.639Z,34.40
2022-08-07T16:32:54.645Z,34.60
2022-08-07T16:35:58.469Z,34.80
2022-08-07T16:39:01.412Z,34.80
2022-08-07T16:42:28.944Z,34.80
2022-08-07T16:46:40.521Z,34.70
2022-08-07T16:49:04.013Z,35.70
2022-08-07T16:52:11.371Z,35.60
2022-08-07T16:55:11.429Z,35.40
2022-08-07T16:58:03.741Z,35.70
2022-08-07T17:00:45.755Z,35.50
2022-08-07T17:03:57.791Z,36.40
2022-08-07T17:06:57.986Z,36.40
2022-08-07T17:10:07.790Z,36.90
2022-08-07T17:12:44.414Z,37.10
2022-08-07T17:15:44.573Z,36.00
2022-08-07T17:18:29.134Z,37.30
2022-08-07T17:20:57.781Z,36.20
2022-08-07T17:23:44.681Z,36.80
2022-08-07T17:26:29.957Z,36.80
2022-08-07T17:30:15.929Z,36.80
2022-08-07T17:32:49.504Z,38.10
2022-08-07T17:35:51.776Z,38.00
2022-08-07T17:38:33.469Z,38.30
2022-08-07T17:42:04.633Z,37.90
2022-08-07T17:44:34.000Z,37.90
2022-08-07T17:47:37.739Z,37.90
2022-08-07T17:50:16.673Z,38.20
2022-08-07T17:52:58.973Z,38.40
2022-08-07T17:56:00.340Z,38.40
2022-08-07T17:58:46.295Z,38.80
2022-08-07T18:01:28.955Z,38.50
2022-08-07T18:04:22.486Z,38.90
2022-08-07T18:07:21.027Z,38.70
2022-08-07T18:10:05.806Z,39.30
2022-08-07T18:13:06.748Z,39.50
2022-08-07T18:16:00.167Z,39.40
2022-08-07T18:21:01.685Z,40.20
2022-08-07T18:21:51.900Z,40.50
2022-08-07T18:24:33.733Z,41.40
2022-08-07T18:27:38.451Z,42.00
2022-08-07T18:30:32.456Z,42.50
2022-08-07T18:34:37.918Z,43.00
2022-08-07T18:38:55.822Z,42.20
2022-08-07T18:40:42.453Z,42.70
2022-08-07T18:43:43.069Z,41.80
2022-08-07T18:46:27.520Z,42.10
2022-08-07T18:50:30.173Z,41.90
2022-08-07T18:52:40.834Z,42.50
2022-08-07T18:55:40.761Z,42.50
2022-08-07T18:58:55.822Z,43.40
2022-08-07T19:02:31.851Z,43.60
2022-08-07T19:04:54.711Z,44.70
2022-08-07T19:07:52.889Z,45.50
2022-08-07T19:10:31.871Z,45.70
2022-08-07T19:13:26.613Z,46.50
2022-08-07T19:17:00.646Z,47.00
2022-08-07T19:19:01.185Z,46.30
2022-08-07T19:21:56.967Z,46.30
2022-08-07T19:24:43.547Z,46.00
2022-08-07T19:28:30.898Z,47.60
2022-08-07T19:31:06.375Z,48.20
2022-08-07T19:33:08.224Z,50.20
2022-08-07T19:35:45.076Z,51.50
2022-08-07T19:38:20.664Z,53.00
2022-08-07T19:40:53.304Z,56.70
2022-08-07T19:43:43.387Z,58.10
2022-08-07T19:46:19.974Z,60.40
2022-08-07T19:48:57.106Z,62.60
2022-08-07T19:51:53.232Z,63.10
2022-08-07T19:54:34.121Z,63.80
2022-08-07T19:58:04.780Z,65.90
2022-08-07T20:00:10.075Z,67.60
2022-08-07T20:02:52.159Z,1.00
2022-08-07T20:05:28.195Z,1.00
2022-08-07T20:08:03.105Z,1.00
2022-08-07T20:10:54.767Z,1.00
2022-08-07T20:13:38.526Z,42.60
2022-08-07T20:16:15.936Z,4.00
2022-08-07T20:19:04.378Z,45.50
2022-08-07T20:21:46.842Z,99.90
2022-08-07T20:24:22.103Z,99.90
2022-08-07T20:26:56.329Z,99.90
2022-08-07T20:29:48.003Z,99.90
2022-08-07T20:32:25.675Z,99.90
2022-08-07T20:34:58.478Z,99.90
2022-08-07T20:37:37.083Z,1.00
2022-08-07T20:40:31.368Z,1.00
2022-08-07T20:43:09.460Z,1.00
2022-08-07T20:46:24.447Z,1.00
2022-08-07T20:48:38.174Z,1.00
2022-08-07T20:51:11.747Z,1.00
2022-08-07T20:54:02.882Z,1.00
2022-08-07T21:00:04.861Z,99.90
2022-08-07T21:02:35.818Z,99.90
2022-08-07T21:05:16.553Z,99.90
2022-08-07T21:07:51.075Z,99.90
2022-08-07T21:10:31.427Z,99.90
2022-08-07T21:13:06.547Z,1.00
2022-08-07T21:15:58.082Z,1.00
2022-08-07T21:18:34.234Z,1.00
2022-08-07T21:21:05.044Z,1.00
2022-08-07T21:23:50.582Z,1.00
2022-08-07T21:26:42.972Z,1.00
2022-08-07T21:29:19.220Z,99.90
2022-08-07T21:32:47.114Z,99.90
2022-08-07T21:35:03.825Z,93.90
2022-08-07T21:37:59.518Z,99.90
2022-08-07T21:40:41.166Z,99.90
2022-08-07T21:43:14.911Z,1.00
2022-08-07T21:46:10.420Z,99.90
2022-08-07T21:48:55.896Z,99.90
2022-08-07T21:51:51.070Z,99.90
2022-08-07T21:54:30.786Z,1.00
2022-08-07T21:57:31.505Z,1.00
2022-08-07T22:00:22.299Z,1.00
2022-08-07T22:03:03.497Z,1.00
2022-08-07T22:05:49.724Z,1.00
2022-08-07T22:08:23.255Z,1.00
2022-08-07T22:11:01.684Z,1.00
2022-08-07T22:13:52.740Z,1.00
2022-08-07T22:16:39.161Z,1.00
2022-08-07T22:19:29.342Z,99.90
2022-08-07T22:22:20.755Z,99.90
2022-08-07T22:25:08.430Z,1.00
2022-08-07T22:28:07.926Z,1.00
2022-08-07T22:30:53.086Z,1.00
2022-08-07T22:33:53.306Z,14.00
2022-08-07T22:36:48.604Z,99.90
2022-08-07T22:39:53.024Z,99.90
2022-08-07T22:42:54.123Z,99.90
2022-08-07T22:46:21.715Z,27.00
2022-08-07T22:48:56.194Z,1.00
2022-08-07T22:51:58.052Z,99.90
2022-08-07T22:55:17.086Z,99.90
2022-08-07T22:58:34.170Z,99.90
2022-08-07T23:01:49.764Z,99.90
2022-08-07T23:04:56.831Z,1.00
2022-08-07T23:07:49.120Z,1.00
2022-08-07T23:10:41.989Z,24.70
2022-08-07T23:13:49.279Z,1.00
2022-08-07T23:16:55.903Z,99.90
2022-08-07T23:20:04.222Z,43.90
2022-08-07T23:22:52.304Z,99.90
2022-08-07T23:25:41.548Z,1.00
2022-08-07T23:28:44.314Z,99.90
2022-08-07T23:32:49.386Z,99.90
2022-08-07T23:34:50.824Z,1.00
2022-08-07T23:38:01.161Z,99.90
2022-08-07T23:40:49.193Z,1.00
2022-08-07T23:44:07.570Z,1.00
2022-08-07T23:47:13.306Z,1.00
2022-08-07T23:50:30.393Z,1.00
2022-08-07T23:53:17.108Z,1.00
2022-08-07T23:56:01.696Z,1.00
2022-08-07T23:58:45.665Z,1.00
